sensor_id;sensor_type;location;lat;lon;timestamp;pressure;altitude;pressure_sealevel;temperature;humidity
32033;BME280;31720;52.638;9.216;2023-02-14T00:01:09;103371.09;;;3.05;100.00
32033;BME280;31720;52.638;9.216;2023-02-14T00:04:10;103368.41;;;3.01;100.00
32033;BME280;31720;52.638;9.216;2023-02-14T00:07:12;103379.59;;;2.98;100.00
32033;BME280;31720;52.638;9.216;2023-02-14T00:10:13;103373.44;;;2.95;100.00
32033;BME280;31720;52.638;9.216;2023-02-14T00:13:16;103375.13;;;2.91;100.00
32033;BME280;31720;52.638;9.216;2023-02-14T00:16:17;103376.81;;;2.89;100.00
32033;BME280;31720;52.638;9.216;2023-02-14T00:19:20;103378.53;;;2.90;100.00
32033;BME280;31720;52.638;9.216;2023-02-14T00:22:21;103382.00;;;2.89;100.00
32033;BME280;31720;52.638;9.216;2023-02-14T00:25:22;103382.72;;;2.82;100.00
32033;BME280;31720;52.638;9.216;2023-02-14T00:28:25;103375.72;;;2.79;100.00
32033;BME280;31720;52.638;9.216;2023-02-14T00:31:26;103383.44;;;2.75;100.00
32033;BME280;31720;52.638;9.216;2023-02-14T00:34:28;103390.34;;;2.74;100.00
32033;BME280;31720;52.638;9.216;2023-02-14T00:37:29;103376.34;;;2.68;100.00
32033;BME280;31720;52.638;9.216;2023-02-14T00:40:31;103381.63;;;2.72;100.00
32033;BME280;31720;52.638;9.216;2023-02-14T00:43:33;103378.22;;;2.75;100.00
32033;BME280;31720;52.638;9.216;2023-02-14T00:46:35;103379.97;;;2.74;100.00
32033;BME280;31720;52.638;9.216;2023-02-14T00:49:36;103372.06;;;2.70;100.00
32033;BME280;31720;52.638;9.216;2023-02-14T00:52:38;103372.91;;;2.69;100.00
32033;BME280;31720;52.638;9.216;2023-02-14T00:55:39;103381.53;;;2.68;100.00
32033;BME280;31720;52.638;9.216;2023-02-14T00:58:42;103378.78;;;2.60;100.00
32033;BME280;31720;52.638;9.216;2023-02-14T01:01:43;103386.50;;;2.57;100.00
32033;BME280;31720;52.638;9.216;2023-02-14T01:04:45;103386.38;;;2.51;100.00
32033;BME280;31720;52.638;9.216;2023-02-14T01:07:46;103385.22;;;2.40;100.00
32033;BME280;31720;52.638;9.216;2023-02-14T01:10:47;103378.06;;;2.28;100.00
32033;BME280;31720;52.638;9.216;2023-02-14T01:13:53;103380.66;;;2.28;100.00
32033;BME280;31720;52.638;9.216;2023-02-14T01:16:55;103378.00;;;2.26;100.00
32033;BME280;31720;52.638;9.216;2023-02-14T01:19:56;103377.00;;;2.21;100.00
32033;BME280;31720;52.638;9.216;2023-02-14T01:22:58;103377.97;;;2.25;100.00
32033;BME280;31720;52.638;9.216;2023-02-14T01:26:03;103376.16;;;2.22;100.00
32033;BME280;31720;52.638;9.216;2023-02-14T01:29:06;103378.75;;;2.22;100.00
32033;BME280;31720;52.638;9.216;2023-02-14T01:32:07;103379.56;;;2.18;100.00
32033;BME280;31720;52.638;9.216;2023-02-14T01:35:09;103386.50;;;2.19;100.00
32033;BME280;31720;52.638;9.216;2023-02-14T01:38:11;103377.78;;;2.17;100.00
32033;BME280;31720;52.638;9.216;2023-02-14T01:41:13;103376.00;;;2.15;100.00
32033;BME280;31720;52.638;9.216;2023-02-14T01:47:55;103376.78;;;2.11;100.00
32033;BME280;31720;52.638;9.216;2023-02-14T01:50:57;103377.56;;;2.08;100.00
32033;BME280;31720;52.638;9.216;2023-02-14T01:53:59;103381.84;;;2.06;100.00
32033;BME280;31720;52.638;9.216;2023-02-14T01:57:04;103375.84;;;2.09;100.00
32033;BME280;31720;52.638;9.216;2023-02-14T02:00:09;103371.59;;;2.11;100.00
32033;BME280;31720;52.638;9.216;2023-02-14T02:03:31;103371.56;;;2.09;100.00
32033;BME280;31720;52.638;9.216;2023-02-14T02:06:37;103375.78;;;2.06;100.00
32033;BME280;31720;52.638;9.216;2023-02-14T02:09:44;103367.94;;;2.02;100.00
32033;BME280;31720;52.638;9.216;2023-02-14T02:12:47;103366.97;;;1.99;100.00
32033;BME280;31720;52.638;9.216;2023-02-14T02:15:59;103365.25;;;1.99;100.00
32033;BME280;31720;52.638;9.216;2023-02-14T02:19:35;103362.53;;;1.95;100.00
32033;BME280;31720;52.638;9.216;2023-02-14T02:22:55;103362.50;;;1.92;100.00
32033;BME280;31720;52.638;9.216;2023-02-14T02:26:25;103353.78;;;1.90;100.00
32033;BME280;31720;52.638;9.216;2023-02-14T02:33:54;103345.25;;;1.94;100.00
32033;BME280;31720;52.638;9.216;2023-02-14T02:37:22;103343.56;;;1.96;100.00
32033;BME280;31720;52.638;9.216;2023-02-14T02:40:39;103334.06;;;1.96;100.00
32033;BME280;31720;52.638;9.216;2023-02-14T02:43:52;103337.53;;;1.97;100.00
32033;BME280;31720;52.638;9.216;2023-02-14T02:47:03;103334.00;;;1.93;100.00
32033;BME280;31720;52.638;9.216;2023-02-14T02:50:17;103323.66;;;1.95;100.00
32033;BME280;31720;52.638;9.216;2023-02-14T02:53:54;103334.00;;;1.93;100.00
32033;BME280;31720;52.638;9.216;2023-02-14T02:57:00;103325.34;;;1.93;100.00
32033;BME280;31720;52.638;9.216;2023-02-14T03:00:05;103323.53;;;1.90;100.00
32033;BME280;31720;52.638;9.216;2023-02-14T03:03:08;103315.72;;;1.89;100.00
32033;BME280;31720;52.638;9.216;2023-02-14T03:06:28;103307.94;;;1.87;100.00
32033;BME280;31720;52.638;9.216;2023-02-14T03:09:52;103312.16;;;1.84;100.00
32033;BME280;31720;52.638;9.216;2023-02-14T03:16:53;103303.41;;;1.80;100.00
32033;BME280;31720;52.638;9.216;2023-02-14T03:20:06;103295.75;;;1.85;100.00
32033;BME280;31720;52.638;9.216;2023-02-14T03:23:19;103300.94;;;1.85;100.00
32033;BME280;31720;52.638;9.216;2023-02-14T03:26:27;103297.38;;;1.81;100.00
32033;BME280;31720;52.638;9.216;2023-02-14T03:29:42;103294.75;;;1.78;100.00
32033;BME280;31720;52.638;9.216;2023-02-14T03:32:50;103289.56;;;1.78;100.00
32033;BME280;31720;52.638;9.216;2023-02-14T03:35:57;103287.84;;;1.78;100.00
32033;BME280;31720;52.638;9.216;2023-02-14T03:39:04;103282.53;;;1.74;100.00
32033;BME280;31720;52.638;9.216;2023-02-14T03:42:12;103281.59;;;1.70;100.00
32033;BME280;31720;52.638;9.216;2023-02-14T03:45:18;103274.56;;;1.66;100.00
32033;BME280;31720;52.638;9.216;2023-02-14T03:48:22;103276.22;;;1.63;100.00
32033;BME280;31720;52.638;9.216;2023-02-14T03:51:27;103279.72;;;1.65;100.00
32033;BME280;31720;52.638;9.216;2023-02-14T03:54:34;103285.88;;;1.68;100.00
32033;BME280;31720;52.638;9.216;2023-02-14T03:57:41;103285.81;;;1.67;100.00
32033;BME280;31720;52.638;9.216;2023-02-14T04:00:49;103283.31;;;1.70;100.00
32033;BME280;31720;52.638;9.216;2023-02-14T04:03:52;103282.47;;;1.71;100.00
32033;BME280;31720;52.638;9.216;2023-02-14T04:06:55;103272.06;;;1.69;100.00
32033;BME280;31720;52.638;9.216;2023-02-14T04:09:57;103269.50;;;1.71;100.00
32033;BME280;31720;52.638;9.216;2023-02-14T04:12:59;103270.31;;;1.68;100.00
32033;BME280;31720;52.638;9.216;2023-02-14T04:16:01;103264.22;;;1.68;100.00
32033;BME280;31720;52.638;9.216;2023-02-14T04:19:02;103262.47;;;1.65;100.00
32033;BME280;31720;52.638;9.216;2023-02-14T04:22:22;103259.03;;;1.66;100.00
32033;BME280;31720;52.638;9.216;2023-02-14T04:25:23;103264.22;;;1.68;100.00
32033;BME280;31720;52.638;9.216;2023-02-14T04:28:26;103263.41;;;1.69;100.00
32033;BME280;31720;52.638;9.216;2023-02-14T04:31:27;103254.78;;;1.70;100.00
32033;BME280;31720;52.638;9.216;2023-02-14T04:34:28;103255.66;;;1.69;100.00
32033;BME280;31720;52.638;9.216;2023-02-14T04:37:30;103254.03;;;1.74;100.00
32033;BME280;31720;52.638;9.216;2023-02-14T04:40:31;103258.38;;;1.75;100.00
32033;BME280;31720;52.638;9.216;2023-02-14T04:43:34;103245.41;;;1.75;100.00
32033;BME280;31720;52.638;9.216;2023-02-14T04:46:36;103251.38;;;1.72;100.00
32033;BME280;31720;52.638;9.216;2023-02-14T04:49:37;103246.25;;;1.74;100.00
32033;BME280;31720;52.638;9.216;2023-02-14T04:52:38;103246.09;;;1.68;100.00
32033;BME280;31720;52.638;9.216;2023-02-14T04:55:40;103250.41;;;1.67;100.00
32033;BME280;31720;52.638;9.216;2023-02-14T04:58:43;103244.41;;;1.68;100.00
32033;BME280;31720;52.638;9.216;2023-02-14T05:01:44;103238.38;;;1.69;100.00
32033;BME280;31720;52.638;9.216;2023-02-14T05:04:45;103238.28;;;1.66;100.00
32033;BME280;31720;52.638;9.216;2023-02-14T05:07:47;103239.97;;;1.64;100.00
32033;BME280;31720;52.638;9.216;2023-02-14T05:10:48;103239.94;;;1.63;100.00
32033;BME280;31720;52.638;9.216;2023-02-14T05:13:51;103243.28;;;1.59;100.00
32033;BME280;31720;52.638;9.216;2023-02-14T05:16:52;103241.41;;;1.53;100.00
32033;BME280;31720;52.638;9.216;2023-02-14T05:19:53;103246.59;;;1.51;100.00
32033;BME280;31720;52.638;9.216;2023-02-14T05:22:55;103240.56;;;1.54;100.00
32033;BME280;31720;52.638;9.216;2023-02-14T05:25:59;103239.75;;;1.55;100.00
32033;BME280;31720;52.638;9.216;2023-02-14T05:29:01;103226.81;;;1.55;100.00
32033;BME280;31720;52.638;9.216;2023-02-14T05:32:03;103234.53;;;1.53;100.00
32033;BME280;31720;52.638;9.216;2023-02-14T05:35:05;103231.94;;;1.53;100.00
32033;BME280;31720;52.638;9.216;2023-02-14T05:38:06;103232.75;;;1.51;100.00
32033;BME280;31720;52.638;9.216;2023-02-14T05:41:08;103239.66;;;1.50;100.00
32033;BME280;31720;52.638;9.216;2023-02-14T05:44:10;103235.25;;;1.48;100.00
32033;BME280;31720;52.638;9.216;2023-02-14T05:47:12;103229.19;;;1.46;100.00
32033;BME280;31720;52.638;9.216;2023-02-14T05:50:14;103235.19;;;1.45;100.00
32033;BME280;31720;52.638;9.216;2023-02-14T05:53:16;103231.69;;;1.43;100.00
32033;BME280;31720;52.638;9.216;2023-02-14T05:56:17;103233.41;;;1.42;100.00
32033;BME280;31720;52.638;9.216;2023-02-14T05:59:20;103242.78;;;1.37;100.00
32033;BME280;31720;52.638;9.216;2023-02-14T06:02:22;103232.25;;;1.31;100.00
32033;BME280;31720;52.638;9.216;2023-02-14T06:05:23;103236.44;;;1.26;100.00
32033;BME280;31720;52.638;9.216;2023-02-14T06:08:26;103243.31;;;1.24;100.00
32033;BME280;31720;52.638;9.216;2023-02-14T06:11:27;103245.03;;;1.23;100.00
32033;BME280;31720;52.638;9.216;2023-02-14T06:14:30;103244.97;;;1.22;100.00
32033;BME280;31720;52.638;9.216;2023-02-14T06:17:31;103248.31;;;1.18;100.00
32033;BME280;31720;52.638;9.216;2023-02-14T06:20:33;103252.47;;;1.11;100.00
32033;BME280;31720;52.638;9.216;2023-02-14T06:23:35;103251.63;;;1.12;100.00
32033;BME280;31720;52.638;9.216;2023-02-14T06:26:36;103249.75;;;1.07;100.00
32033;BME280;31720;52.638;9.216;2023-02-14T06:29:39;103248.03;;;1.07;100.00
32033;BME280;31720;52.638;9.216;2023-02-14T06:32:40;103247.06;;;1.04;100.00
32033;BME280;31720;52.638;9.216;2023-02-14T06:35:41;103260.09;;;1.05;100.00
32033;BME280;31720;52.638;9.216;2023-02-14T06:38:43;103250.59;;;1.06;100.00
32033;BME280;31720;52.638;9.216;2023-02-14T06:41:47;103245.56;;;1.12;100.00
32033;BME280;31720;52.638;9.216;2023-02-14T06:44:49;103251.72;;;1.15;100.00
32033;BME280;31720;52.638;9.216;2023-02-14T06:47:51;103257.72;;;1.14;100.00
32033;BME280;31720;52.638;9.216;2023-02-14T06:50:52;103258.63;;;1.16;100.00
32033;BME280;31720;52.638;9.216;2023-02-14T06:53:54;103255.31;;;1.22;100.00
32033;BME280;31720;52.638;9.216;2023-02-14T06:56:55;103265.88;;;1.28;100.00
32033;BME280;31720;52.638;9.216;2023-02-14T06:59:59;103257.38;;;1.34;100.00
32033;BME280;31720;52.638;9.216;2023-02-14T07:03:03;103266.13;;;1.39;100.00
32033;BME280;31720;52.638;9.216;2023-02-14T07:06:05;103260.09;;;1.40;100.00
32033;BME280;31720;52.638;9.216;2023-02-14T07:09:06;103265.25;;;1.38;100.00
32033;BME280;31720;52.638;9.216;2023-02-14T07:12:08;103257.28;;;1.31;100.00
32033;BME280;31720;52.638;9.216;2023-02-14T07:15:12;103252.16;;;1.32;100.00
32033;BME280;31720;52.638;9.216;2023-02-14T07:18:13;103260.97;;;1.40;100.00
32033;BME280;31720;52.638;9.216;2023-02-14T07:21:15;103261.06;;;1.43;100.00
32033;BME280;31720;52.638;9.216;2023-02-14T07:24:16;103262.69;;;1.40;100.00
32033;BME280;31720;52.638;9.216;2023-02-14T07:27:17;103261.94;;;1.44;100.00
32033;BME280;31720;52.638;9.216;2023-02-14T07:30:20;103255.97;;;1.46;100.00
32033;BME280;31720;52.638;9.216;2023-02-14T07:33:22;103256.13;;;1.54;100.00
32033;BME280;31720;52.638;9.216;2023-02-14T07:36:23;103256.28;;;1.60;100.00
32033;BME280;31720;52.638;9.216;2023-02-14T07:39:24;103254.34;;;1.51;100.00
32033;BME280;31720;52.638;9.216;2023-02-14T07:42:26;103255.84;;;1.42;100.00
32033;BME280;31720;52.638;9.216;2023-02-14T07:45:28;103256.81;;;1.45;100.00
32033;BME280;31720;52.638;9.216;2023-02-14T07:48:30;103255.13;;;1.47;100.00
32033;BME280;31720;52.638;9.216;2023-02-14T07:51:31;103254.34;;;1.51;100.00
32033;BME280;31720;52.638;9.216;2023-02-14T07:54:33;103240.56;;;1.52;100.00
32033;BME280;31720;52.638;9.216;2023-02-14T07:57:34;103251.63;;;1.45;100.00
32033;BME280;31720;52.638;9.216;2023-02-14T08:00:37;103260.41;;;1.52;100.00
32033;BME280;31720;52.638;9.216;2023-02-14T08:03:38;103261.81;;;1.39;100.00
32033;BME280;31720;52.638;9.216;2023-02-14T08:06:40;103260.28;;;1.47;100.00
32033;BME280;31720;52.638;9.216;2023-02-14T08:09:41;103268.09;;;1.49;100.00
32033;BME280;31720;52.638;9.216;2023-02-14T08:12:43;103262.88;;;1.46;100.00
32033;BME280;31720;52.638;9.216;2023-02-14T08:16:00;103268.16;;;1.50;100.00
32033;BME280;31720;52.638;9.216;2023-02-14T08:19:05;103270.00;;;1.56;100.00
32033;BME280;31720;52.638;9.216;2023-02-14T08:22:06;103272.63;;;1.58;100.00
32033;BME280;31720;52.638;9.216;2023-02-14T08:25:08;103267.41;;;1.56;100.00
32033;BME280;31720;52.638;9.216;2023-02-14T08:28:10;103265.56;;;1.50;100.00
32033;BME280;31720;52.638;9.216;2023-02-14T08:31:20;103271.66;;;1.52;100.00
32033;BME280;31720;52.638;9.216;2023-02-14T08:34:22;103269.38;;;1.65;100.00
32033;BME280;31720;52.638;9.216;2023-02-14T08:37:24;103266.03;;;1.70;100.00
32033;BME280;31720;52.638;9.216;2023-02-14T08:40:25;103267.63;;;1.64;100.00
32033;BME280;31720;52.638;9.216;2023-02-14T08:43:27;103266.06;;;1.72;100.00
32033;BME280;31720;52.638;9.216;2023-02-14T08:46:29;103263.66;;;1.80;100.00
32033;BME280;31720;52.638;9.216;2023-02-14T08:49:31;103258.59;;;1.86;100.00
32033;BME280;31720;52.638;9.216;2023-02-14T08:52:32;103261.38;;;1.92;100.00
32033;BME280;31720;52.638;9.216;2023-02-14T08:55:34;103259.72;;;1.95;100.00
32033;BME280;31720;52.638;9.216;2023-02-14T08:58:36;103264.97;;;1.98;100.00
32033;BME280;31720;52.638;9.216;2023-02-14T09:01:40;103268.63;;;2.08;100.00
32033;BME280;31720;52.638;9.216;2023-02-14T09:04:41;103271.31;;;2.13;100.00
32033;BME280;31720;52.638;9.216;2023-02-14T09:07:43;103266.28;;;2.19;100.00
32033;BME280;31720;52.638;9.216;2023-02-14T09:10:44;103263.81;;;2.25;100.00
32033;BME280;31720;52.638;9.216;2023-02-14T09:13:46;103265.63;;;2.27;100.00
32033;BME280;31720;52.638;9.216;2023-02-14T09:16:49;103260.56;;;2.34;100.00
32033;BME280;31720;52.638;9.216;2023-02-14T09:19:50;103267.59;;;2.39;100.00
32033;BME280;31720;52.638;9.216;2023-02-14T09:22:54;103257.34;;;2.45;100.00
32033;BME280;31720;52.638;9.216;2023-02-14T09:25:59;103257.44;;;2.50;100.00
32033;BME280;31720;52.638;9.216;2023-02-14T09:29:01;103255.75;;;2.52;100.00
32033;BME280;31720;52.638;9.216;2023-02-14T09:32:04;103233.38;;;2.59;100.00
32033;BME280;31720;52.638;9.216;2023-02-14T09:35:06;103240.50;;;2.69;100.00
32033;BME280;31720;52.638;9.216;2023-02-14T09:38:24;103231.91;;;2.71;100.00
32033;BME280;31720;52.638;9.216;2023-02-14T09:41:57;103233.72;;;2.77;100.00
32033;BME280;31720;52.638;9.216;2023-02-14T09:45:04;103228.50;;;2.74;100.00
32033;BME280;31720;52.638;9.216;2023-02-14T09:48:14;103228.59;;;2.80;100.00
32033;BME280;31720;52.638;9.216;2023-02-14T09:51:21;103223.56;;;2.89;100.00
32033;BME280;31720;52.638;9.216;2023-02-14T09:54:27;103225.50;;;2.99;100.00
32033;BME280;31720;52.638;9.216;2023-02-14T09:57:43;103217.81;;;3.05;100.00
32033;BME280;31720;52.638;9.216;2023-02-14T10:00:52;103218.72;;;3.08;100.00
32033;BME280;31720;52.638;9.216;2023-02-14T10:04:08;103229.25;;;3.17;100.00
32033;BME280;31720;52.638;9.216;2023-02-14T10:07:17;103226.81;;;3.26;100.00
32033;BME280;31720;52.638;9.216;2023-02-14T10:10:27;103220.03;;;3.34;100.00
32033;BME280;31720;52.638;9.216;2023-02-14T10:13:34;103230.63;;;3.46;100.00
32033;BME280;31720;52.638;9.216;2023-02-14T10:16:41;103223.88;;;3.58;100.00
32033;BME280;31720;52.638;9.216;2023-02-14T10:19:48;103218.00;;;3.69;100.00
32033;BME280;31720;52.638;9.216;2023-02-14T10:22:58;103214.72;;;3.83;100.00
32033;BME280;31720;52.638;9.216;2023-02-14T10:26:04;103206.19;;;3.93;100.00
32033;BME280;31720;52.638;9.216;2023-02-14T10:29:10;103200.28;;;4.04;100.00
32033;BME280;31720;52.638;9.216;2023-02-14T10:32:14;103193.47;;;4.16;100.00
32033;BME280;31720;52.638;9.216;2023-02-14T10:35:29;103193.66;;;4.29;100.00
32033;BME280;31720;52.638;9.216;2023-02-14T10:38:37;103192.03;;;4.39;100.00
32033;BME280;31720;52.638;9.216;2023-02-14T10:41:49;103183.47;;;4.49;100.00
32033;BME280;31720;52.638;9.216;2023-02-14T10:44:58;103184.47;;;4.62;100.00
32033;BME280;31720;52.638;9.216;2023-02-14T10:48:09;103184.56;;;4.71;100.00
32033;BME280;31720;52.638;9.216;2023-02-14T10:51:21;103184.69;;;4.82;100.00
32033;BME280;31720;52.638;9.216;2023-02-14T10:54:25;103180.53;;;5.02;100.00
32033;BME280;31720;52.638;9.216;2023-02-14T10:57:31;103174.53;;;5.13;100.00
32033;BME280;31720;52.638;9.216;2023-02-14T11:00:37;103173.84;;;5.35;100.00
32033;BME280;31720;52.638;9.216;2023-02-14T11:03:46;103173.13;;;5.56;100.00
32033;BME280;31720;52.638;9.216;2023-02-14T11:06:53;103164.53;;;5.71;100.00
32033;BME280;31720;52.638;9.216;2023-02-14T11:09:54;103160.38;;;6.00;100.00
32033;BME280;31720;52.638;9.216;2023-02-14T11:12:56;103157.78;;;6.13;100.00
32033;BME280;31720;52.638;9.216;2023-02-14T11:15:59;103157.91;;;6.43;100.00
32033;BME280;31720;52.638;9.216;2023-02-14T11:19:09;103148.34;;;6.47;100.00
32033;BME280;31720;52.638;9.216;2023-02-14T11:22:27;103144.03;;;6.66;100.00
32033;BME280;31720;52.638;9.216;2023-02-14T11:25:30;103143.19;;;6.77;100.00
32033;BME280;31720;52.638;9.216;2023-02-14T11:28:34;103144.03;;;6.95;100.00
32033;BME280;31720;52.638;9.216;2023-02-14T11:31:37;103144.06;;;7.22;100.00
32033;BME280;31720;52.638;9.216;2023-02-14T11:34:40;103137.94;;;7.37;100.00
32033;BME280;31720;52.638;9.216;2023-02-14T11:37:48;103133.50;;;7.57;100.00
32033;BME280;31720;52.638;9.216;2023-02-14T11:40:53;103129.97;;;7.81;100.00
32033;BME280;31720;52.638;9.216;2023-02-14T11:44:12;103126.41;;;7.98;100.00
32033;BME280;31720;52.638;9.216;2023-02-14T11:47:21;103124.63;;;8.09;100.00
32033;BME280;31720;52.638;9.216;2023-02-14T11:50:25;103119.28;;;8.36;100.00
32033;BME280;31720;52.638;9.216;2023-02-14T11:53:36;103111.38;;;8.33;100.00
32033;BME280;31720;52.638;9.216;2023-02-14T11:56:45;103105.25;;;8.34;100.00
32033;BME280;31720;52.638;9.216;2023-02-14T11:59:50;103105.22;;;8.47;100.00
32033;BME280;31720;52.638;9.216;2023-02-14T12:02:54;103105.06;;;8.68;100.00
32033;BME280;31720;52.638;9.216;2023-02-14T12:05:56;103097.03;;;8.89;100.00
32033;BME280;31720;52.638;9.216;2023-02-14T12:09:12;103088.97;;;9.11;100.00
32033;BME280;31720;52.638;9.216;2023-02-14T12:12:16;103076.66;;;9.19;100.00
32033;BME280;31720;52.638;9.216;2023-02-14T12:15:25;103080.88;;;9.34;100.00
32033;BME280;31720;52.638;9.216;2023-02-14T12:18:41;103072.16;;;9.30;100.00
32033;BME280;31720;52.638;9.216;2023-02-14T12:21:48;103072.06;;;9.38;100.00
32033;BME280;31720;52.638;9.216;2023-02-14T12:25:00;103074.50;;;9.55;100.00
32033;BME280;31720;52.638;9.216;2023-02-14T12:28:05;103071.69;;;9.70;100.00
32033;BME280;31720;52.638;9.216;2023-02-14T12:31:11;103063.69;;;9.82;100.00
32033;BME280;31720;52.638;9.216;2023-02-14T12:34:14;103059.25;;;9.86;100.00
32033;BME280;31720;52.638;9.216;2023-02-14T12:37:25;103063.53;;;9.93;100.00
32033;BME280;31720;52.638;9.216;2023-02-14T12:40:40;103054.41;;;10.17;100.00
32033;BME280;31720;52.638;9.216;2023-02-14T12:43:46;103049.09;;;10.25;100.00
32033;BME280;31720;52.638;9.216;2023-02-14T12:47:00;103055.22;;;10.24;100.00
32033;BME280;31720;52.638;9.216;2023-02-14T12:50:24;103048.84;;;10.40;100.00
32033;BME280;31720;52.638;9.216;2023-02-14T12:53:44;103036.59;;;10.40;100.00
32033;BME280;31720;52.638;9.216;2023-02-14T12:57:00;103035.44;;;10.57;100.00
32033;BME280;31720;52.638;9.216;2023-02-14T13:00:17;103026.69;;;10.56;100.00
32033;BME280;31720;52.638;9.216;2023-02-14T13:03:34;103018.91;;;10.50;100.00
32033;BME280;31720;52.638;9.216;2023-02-14T13:06:39;103026.69;;;10.56;100.00
32033;BME280;31720;52.638;9.216;2023-02-14T13:09:49;103023.97;;;10.61;100.00
32033;BME280;31720;52.638;9.216;2023-02-14T13:13:02;103018.66;;;10.65;100.00
32033;BME280;31720;52.638;9.216;2023-02-14T13:16:11;103004.50;;;10.73;100.00
32033;BME280;31720;52.638;9.216;2023-02-14T13:19:27;103004.06;;;10.97;100.00
32033;BME280;31720;52.638;9.216;2023-02-14T13:22:32;102999.56;;;11.02;100.00
32033;BME280;31720;52.638;9.216;2023-02-14T13:25:37;102992.53;;;11.03;100.00
32033;BME280;31720;52.638;9.216;2023-02-14T13:28:47;102989.81;;;11.07;100.00
32033;BME280;31720;52.638;9.216;2023-02-14T13:31:50;102991.44;;;11.14;100.00
32033;BME280;31720;52.638;9.216;2023-02-14T13:34:56;102986.22;;;11.11;100.00
32033;BME280;31720;52.638;9.216;2023-02-14T13:38:01;102980.78;;;11.21;100.00
32033;BME280;31720;52.638;9.216;2023-02-14T13:41:03;102984.00;;;11.35;100.00
32033;BME280;31720;52.638;9.216;2023-02-14T13:44:08;102975.03;;;11.43;100.00
32033;BME280;31720;52.638;9.216;2023-02-14T13:47:15;102978.44;;;11.49;100.00
32033;BME280;31720;52.638;9.216;2023-02-14T13:50:19;102977.47;;;11.53;100.00
32033;BME280;31720;52.638;9.216;2023-02-14T13:53:32;102968.63;;;11.57;100.00
32033;BME280;31720;52.638;9.216;2023-02-14T13:56:34;102973.66;;;11.67;100.00
32033;BME280;31720;52.638;9.216;2023-02-14T13:59:35;102971.28;;;11.55;100.00
32033;BME280;31720;52.638;9.216;2023-02-14T14:02:42;102965.06;;;11.58;100.00
32033;BME280;31720;52.638;9.216;2023-02-14T14:05:46;102960.72;;;11.57;100.00
32033;BME280;31720;52.638;9.216;2023-02-14T14:08:51;102954.59;;;11.56;100.00
32033;BME280;31720;52.638;9.216;2023-02-14T14:11:54;102949.31;;;11.56;100.00
32033;BME280;31720;52.638;9.216;2023-02-14T14:15:09;102945.13;;;11.48;100.00
32033;BME280;31720;52.638;9.216;2023-02-14T14:18:36;102948.31;;;11.62;100.00
32033;BME280;31720;52.638;9.216;2023-02-14T14:21:42;102945.75;;;11.59;100.00
32033;BME280;31720;52.638;9.216;2023-02-14T14:24:53;102950.56;;;11.79;100.00
32033;BME280;31720;52.638;9.216;2023-02-14T14:27:55;102946.44;;;11.67;100.00
32033;BME280;31720;52.638;9.216;2023-02-14T14:30:57;102941.66;;;11.46;100.00
32033;BME280;31720;52.638;9.216;2023-02-14T14:34:00;102935.84;;;11.30;100.00
32033;BME280;31720;52.638;9.216;2023-02-14T14:37:02;102942.94;;;11.26;100.00
32033;BME280;31720;52.638;9.216;2023-02-14T14:40:07;102939.81;;;11.07;100.00
32033;BME280;31720;52.638;9.216;2023-02-14T14:43:24;102934.06;;;10.88;100.00
32033;BME280;31720;52.638;9.216;2023-02-14T14:46:26;102936.13;;;10.71;100.00
32033;BME280;31720;52.638;9.216;2023-02-14T14:49:28;102935.44;;;10.61;100.00
32033;BME280;31720;52.638;9.216;2023-02-14T14:52:33;102933.72;;;10.60;100.00
32033;BME280;31720;52.638;9.216;2023-02-14T14:55:37;102934.53;;;10.64;100.00
32033;BME280;31720;52.638;9.216;2023-02-14T14:58:40;102931.25;;;10.51;100.00
32033;BME280;31720;52.638;9.216;2023-02-14T15:01:41;102924.38;;;10.44;100.00
32033;BME280;31720;52.638;9.216;2023-02-14T15:04:44;102927.94;;;10.41;100.00
32033;BME280;31720;52.638;9.216;2023-02-14T15:07:45;102922.69;;;10.41;100.00
32033;BME280;31720;52.638;9.216;2023-02-14T15:10:49;102920.13;;;10.37;100.00
32033;BME280;31720;52.638;9.216;2023-02-14T15:13:53;102921.19;;;10.27;100.00
32033;BME280;31720;52.638;9.216;2023-02-14T15:16:56;102908.19;;;10.16;100.00
32033;BME280;31720;52.638;9.216;2023-02-14T15:20:00;102908.31;;;10.08;100.00
32033;BME280;31720;52.638;9.216;2023-02-14T15:23:03;102903.94;;;10.09;100.00
32033;BME280;31720;52.638;9.216;2023-02-14T15:26:06;102908.34;;;10.07;100.00
32033;BME280;31720;52.638;9.216;2023-02-14T15:29:19;102903.28;;;9.95;100.00
32033;BME280;31720;52.638;9.216;2023-02-14T15:32:22;102897.41;;;9.79;100.00
32033;BME280;31720;52.638;9.216;2023-02-14T15:35:26;102891.38;;;9.74;100.00
32033;BME280;31720;52.638;9.216;2023-02-14T15:38:29;102896.69;;;9.69;100.00
32033;BME280;31720;52.638;9.216;2023-02-14T15:41:32;102889.78;;;9.62;100.00
32033;BME280;31720;52.638;9.216;2023-02-14T15:44:33;102886.28;;;9.61;100.00
32033;BME280;31720;52.638;9.216;2023-02-14T15:47:35;102887.16;;;9.62;100.00
32033;BME280;31720;52.638;9.216;2023-02-14T15:50:43;102882.91;;;9.53;100.00
32033;BME280;31720;52.638;9.216;2023-02-14T15:53:50;102887.41;;;9.45;100.00
32033;BME280;31720;52.638;9.216;2023-02-14T15:56:53;102883.94;;;9.43;100.00
32033;BME280;31720;52.638;9.216;2023-02-14T15:59:55;102877.84;;;9.41;100.00
32033;BME280;31720;52.638;9.216;2023-02-14T16:02:59;102888.41;;;9.35;100.00
32033;BME280;31720;52.638;9.216;2023-02-14T16:06:03;102897.22;;;9.32;100.00
32033;BME280;31720;52.638;9.216;2023-02-14T16:09:10;102892.09;;;9.23;100.00
32033;BME280;31720;52.638;9.216;2023-02-14T16:12:30;102889.59;;;9.12;100.00
32033;BME280;31720;52.638;9.216;2023-02-14T16:15:33;102885.31;;;9.05;100.00
32033;BME280;31720;52.638;9.216;2023-02-14T16:18:37;102888.00;;;9.01;100.00